sensor_id;sensor_type;location;lat;lon;timestamp;temperature;humidity
57566;DHT22;63999;43.882;-0.310;2023-05-08T00:01:14;16.70;68.70
57566;DHT22;63999;43.882;-0.310;2023-05-08T00:03:41;16.70;68.80
57566;DHT22;63999;43.882;-0.310;2023-05-08T00:06:07;16.60;68.80
57566;DHT22;63999;43.882;-0.310;2023-05-08T00:08:33;16.60;68.90
57566;DHT22;63999;43.882;-0.310;2023-05-08T00:10:58;16.60;69.00
57566;DHT22;63999;43.882;-0.310;2023-05-08T00:13:24;16.60;69.10
57566;DHT22;63999;43.882;-0.310;2023-05-08T00:15:50;16.60;69.30
57566;DHT22;63999;43.882;-0.310;2023-05-08T00:18:16;16.50;69.30
57566;DHT22;63999;43.882;-0.310;2023-05-08T00:20:41;16.50;69.40
57566;DHT22;63999;43.882;-0.310;2023-05-08T00:23:07;16.50;69.40
57566;DHT22;63999;43.882;-0.310;2023-05-08T00:25:33;16.50;69.40
57566;DHT22;63999;43.882;-0.310;2023-05-08T00:27:59;16.40;69.50
57566;DHT22;63999;43.882;-0.310;2023-05-08T00:30:25;16.40;69.50
57566;DHT22;63999;43.882;-0.310;2023-05-08T00:32:51;16.40;69.60
57566;DHT22;63999;43.882;-0.310;2023-05-08T00:35:17;16.40;69.60
57566;DHT22;63999;43.882;-0.310;2023-05-08T00:37:43;16.40;69.60
57566;DHT22;63999;43.882;-0.310;2023-05-08T00:40:09;16.40;69.60
57566;DHT22;63999;43.882;-0.310;2023-05-08T00:42:36;16.40;69.60
57566;DHT22;63999;43.882;-0.310;2023-05-08T00:45:02;16.40;69.60
57566;DHT22;63999;43.882;-0.310;2023-05-08T00:47:29;16.40;69.60
57566;DHT22;63999;43.882;-0.310;2023-05-08T00:49:57;16.40;69.60
57566;DHT22;63999;43.882;-0.310;2023-05-08T00:52:25;16.30;69.70
57566;DHT22;63999;43.882;-0.310;2023-05-08T00:54:52;16.40;69.80
57566;DHT22;63999;43.882;-0.310;2023-05-08T00:57:19;16.20;69.90
57566;DHT22;63999;43.882;-0.310;2023-05-08T00:59:45;16.20;69.80
57566;DHT22;63999;43.882;-0.310;2023-05-08T01:02:12;16.20;69.90
57566;DHT22;63999;43.882;-0.310;2023-05-08T01:04:39;16.20;70.00
57566;DHT22;63999;43.882;-0.310;2023-05-08T01:07:06;16.20;70.00
57566;DHT22;63999;43.882;-0.310;2023-05-08T01:09:32;16.20;69.90
57566;DHT22;63999;43.882;-0.310;2023-05-08T01:17:48;16.10;70.00
57566;DHT22;63999;43.882;-0.310;2023-05-08T01:34:20;15.90;69.70
57566;DHT22;63999;43.882;-0.310;2023-05-08T01:39:42;15.90;70.00
57566;DHT22;63999;43.882;-0.310;2023-05-08T01:45:11;15.80;69.50
57566;DHT22;63999;43.882;-0.310;2023-05-08T01:47:38;15.80;69.60
57566;DHT22;63999;43.882;-0.310;2023-05-08T01:52:42;15.70;69.60
57566;DHT22;63999;43.882;-0.310;2023-05-08T01:55:13;15.70;69.60
57566;DHT22;63999;43.882;-0.310;2023-05-08T01:57:49;15.60;69.80
57566;DHT22;63999;43.882;-0.310;2023-05-08T02:00:18;15.60;69.70
57566;DHT22;63999;43.882;-0.310;2023-05-08T02:02:47;15.60;69.50
57566;DHT22;63999;43.882;-0.310;2023-05-08T02:05:14;15.50;69.60
57566;DHT22;63999;43.882;-0.310;2023-05-08T02:07:42;15.50;69.50
57566;DHT22;63999;43.882;-0.310;2023-05-08T02:10:09;15.50;69.60
57566;DHT22;63999;43.882;-0.310;2023-05-08T02:12:36;15.40;69.60
57566;DHT22;63999;43.882;-0.310;2023-05-08T02:15:04;15.40;69.40
57566;DHT22;63999;43.882;-0.310;2023-05-08T02:17:32;15.40;69.60
57566;DHT22;63999;43.882;-0.310;2023-05-08T02:20:00;15.40;69.80
57566;DHT22;63999;43.882;-0.310;2023-05-08T02:22:29;15.40;69.90
57566;DHT22;63999;43.882;-0.310;2023-05-08T02:24:56;15.40;70.10
57566;DHT22;63999;43.882;-0.310;2023-05-08T02:27:24;15.40;70.20
57566;DHT22;63999;43.882;-0.310;2023-05-08T02:29:52;15.40;70.30
57566;DHT22;63999;43.882;-0.310;2023-05-08T02:32:20;15.40;70.40
57566;DHT22;63999;43.882;-0.310;2023-05-08T02:34:48;15.40;70.40
57566;DHT22;63999;43.882;-0.310;2023-05-08T02:37:17;15.40;70.50
57566;DHT22;63999;43.882;-0.310;2023-05-08T02:39:44;15.40;70.80
57566;DHT22;63999;43.882;-0.310;2023-05-08T02:42:11;15.40;70.70
57566;DHT22;63999;43.882;-0.310;2023-05-08T02:44:37;15.40;70.80
57566;DHT22;63999;43.882;-0.310;2023-05-08T02:47:20;15.40;71.20
57566;DHT22;63999;43.882;-0.310;2023-05-08T02:50:01;15.40;71.30
57566;DHT22;63999;43.882;-0.310;2023-05-08T02:52:34;15.40;71.40
57566;DHT22;63999;43.882;-0.310;2023-05-08T02:55:21;15.50;71.70
57566;DHT22;63999;43.882;-0.310;2023-05-08T02:58:10;15.40;71.90
57566;DHT22;63999;43.882;-0.310;2023-05-08T03:03:31;15.30;72.20
57566;DHT22;63999;43.882;-0.310;2023-05-08T03:06:02;15.40;72.30
57566;DHT22;63999;43.882;-0.310;2023-05-08T03:08:34;15.40;72.50
57566;DHT22;63999;43.882;-0.310;2023-05-08T03:11:05;15.40;72.50
57566;DHT22;63999;43.882;-0.310;2023-05-08T03:13:34;15.40;72.50
57566;DHT22;63999;43.882;-0.310;2023-05-08T03:16:02;15.40;72.60
57566;DHT22;63999;43.882;-0.310;2023-05-08T03:18:40;15.40;72.70
57566;DHT22;63999;43.882;-0.310;2023-05-08T03:21:07;15.40;72.90
57566;DHT22;63999;43.882;-0.310;2023-05-08T03:23:34;15.40;72.90
57566;DHT22;63999;43.882;-0.310;2023-05-08T03:26:02;15.40;72.80
57566;DHT22;63999;43.882;-0.310;2023-05-08T03:28:30;15.50;72.90
57566;DHT22;63999;43.882;-0.310;2023-05-08T03:30:57;15.50;73.10
57566;DHT22;63999;43.882;-0.310;2023-05-08T03:33:25;15.50;73.10
57566;DHT22;63999;43.882;-0.310;2023-05-08T03:35:53;15.40;73.20
57566;DHT22;63999;43.882;-0.310;2023-05-08T03:38:19;15.50;73.30
57566;DHT22;63999;43.882;-0.310;2023-05-08T03:40:45;15.50;73.50
57566;DHT22;63999;43.882;-0.310;2023-05-08T03:43:11;15.50;73.60
57566;DHT22;63999;43.882;-0.310;2023-05-08T03:45:39;15.50;73.60
57566;DHT22;63999;43.882;-0.310;2023-05-08T03:48:06;15.50;73.70
57566;DHT22;63999;43.882;-0.310;2023-05-08T03:50:35;15.50;73.80
57566;DHT22;63999;43.882;-0.310;2023-05-08T03:53:01;15.50;73.90
57566;DHT22;63999;43.882;-0.310;2023-05-08T03:55:28;15.60;73.70
57566;DHT22;63999;43.882;-0.310;2023-05-08T04:00:48;15.60;74.00
57566;DHT22;63999;43.882;-0.310;2023-05-08T04:03:21;15.60;74.10
57566;DHT22;63999;43.882;-0.310;2023-05-08T04:06:11;15.60;74.10
57566;DHT22;63999;43.882;-0.310;2023-05-08T04:08:47;15.60;74.10
57566;DHT22;63999;43.882;-0.310;2023-05-08T04:14:26;15.60;74.20
57566;DHT22;63999;43.882;-0.310;2023-05-08T04:17:02;15.50;74.40
57566;DHT22;63999;43.882;-0.310;2023-05-08T04:19:38;15.60;74.50
57566;DHT22;63999;43.882;-0.310;2023-05-08T04:22:07;15.60;74.40
57566;DHT22;63999;43.882;-0.310;2023-05-08T04:24:39;15.50;74.60
57566;DHT22;63999;43.882;-0.310;2023-05-08T04:27:08;15.50;74.60
57566;DHT22;63999;43.882;-0.310;2023-05-08T04:29:34;15.50;74.70
57566;DHT22;63999;43.882;-0.310;2023-05-08T04:32:06;15.50;74.70
57566;DHT22;63999;43.882;-0.310;2023-05-08T04:34:34;15.50;74.80
57566;DHT22;63999;43.882;-0.310;2023-05-08T04:37:00;15.50;75.00
57566;DHT22;63999;43.882;-0.310;2023-05-08T04:39:26;15.50;75.00
57566;DHT22;63999;43.882;-0.310;2023-05-08T04:41:51;15.40;75.20
57566;DHT22;63999;43.882;-0.310;2023-05-08T04:44:19;15.50;75.30
57566;DHT22;63999;43.882;-0.310;2023-05-08T04:46:45;15.50;75.20
57566;DHT22;63999;43.882;-0.310;2023-05-08T04:49:11;15.50;75.20
57566;DHT22;63999;43.882;-0.310;2023-05-08T04:51:37;15.50;75.30
57566;DHT22;63999;43.882;-0.310;2023-05-08T04:54:05;15.50;75.50
57566;DHT22;63999;43.882;-0.310;2023-05-08T04:56:31;15.50;75.50
57566;DHT22;63999;43.882;-0.310;2023-05-08T04:59:00;15.50;75.40
57566;DHT22;63999;43.882;-0.310;2023-05-08T05:01:25;15.50;75.50
57566;DHT22;63999;43.882;-0.310;2023-05-08T05:03:51;15.40;75.80
57566;DHT22;63999;43.882;-0.310;2023-05-08T05:06:17;15.50;75.80
57566;DHT22;63999;43.882;-0.310;2023-05-08T05:08:43;15.50;75.80
57566;DHT22;63999;43.882;-0.310;2023-05-08T05:11:09;15.50;75.90
57566;DHT22;63999;43.882;-0.310;2023-05-08T05:13:34;15.50;75.90
57566;DHT22;63999;43.882;-0.310;2023-05-08T05:16:00;15.40;76.10
57566;DHT22;63999;43.882;-0.310;2023-05-08T05:18:26;15.40;76.20
57566;DHT22;63999;43.882;-0.310;2023-05-08T05:20:52;15.40;76.30
57566;DHT22;63999;43.882;-0.310;2023-05-08T05:23:18;15.40;76.30
57566;DHT22;63999;43.882;-0.310;2023-05-08T05:25:43;15.40;76.10
57566;DHT22;63999;43.882;-0.310;2023-05-08T05:28:09;15.50;75.90
57566;DHT22;63999;43.882;-0.310;2023-05-08T05:30:35;15.50;76.20
57566;DHT22;63999;43.882;-0.310;2023-05-08T05:33:01;15.50;76.10
57566;DHT22;63999;43.882;-0.310;2023-05-08T05:35:27;15.50;76.10
57566;DHT22;63999;43.882;-0.310;2023-05-08T05:38:01;15.60;75.90
57566;DHT22;63999;43.882;-0.310;2023-05-08T05:40:27;15.60;76.10
57566;DHT22;63999;43.882;-0.310;2023-05-08T05:42:53;15.50;76.40
57566;DHT22;63999;43.882;-0.310;2023-05-08T05:45:19;15.50;76.60
57566;DHT22;63999;43.882;-0.310;2023-05-08T05:47:46;15.50;76.80
57566;DHT22;63999;43.882;-0.310;2023-05-08T05:50:17;15.50;76.80
57566;DHT22;63999;43.882;-0.310;2023-05-08T05:52:43;15.50;76.90
57566;DHT22;63999;43.882;-0.310;2023-05-08T05:55:09;15.50;77.20
57566;DHT22;63999;43.882;-0.310;2023-05-08T05:57:35;15.60;76.70
57566;DHT22;63999;43.882;-0.310;2023-05-08T06:00:02;15.60;76.40
57566;DHT22;63999;43.882;-0.310;2023-05-08T06:02:28;15.60;76.60
57566;DHT22;63999;43.882;-0.310;2023-05-08T06:05:03;15.60;76.80
57566;DHT22;63999;43.882;-0.310;2023-05-08T06:07:29;15.60;77.00
57566;DHT22;63999;43.882;-0.310;2023-05-08T06:09:55;15.60;77.00
57566;DHT22;63999;43.882;-0.310;2023-05-08T06:12:21;15.60;77.10
57566;DHT22;63999;43.882;-0.310;2023-05-08T06:14:47;15.60;76.80
57566;DHT22;63999;43.882;-0.310;2023-05-08T06:17:13;15.70;76.40
57566;DHT22;63999;43.882;-0.310;2023-05-08T06:19:38;15.70;76.70
57566;DHT22;63999;43.882;-0.310;2023-05-08T06:22:04;15.70;76.70
57566;DHT22;63999;43.882;-0.310;2023-05-08T06:24:30;15.80;77.10
57566;DHT22;63999;43.882;-0.310;2023-05-08T06:26:56;15.70;77.20
57566;DHT22;63999;43.882;-0.310;2023-05-08T06:29:22;15.70;77.20
57566;DHT22;63999;43.882;-0.310;2023-05-08T06:31:47;15.70;77.10
57566;DHT22;63999;43.882;-0.310;2023-05-08T06:34:13;15.80;77.40
57566;DHT22;63999;43.882;-0.310;2023-05-08T06:36:40;15.80;77.30
57566;DHT22;63999;43.882;-0.310;2023-05-08T06:39:06;15.80;77.30
57566;DHT22;63999;43.882;-0.310;2023-05-08T06:41:32;15.70;77.60
57566;DHT22;63999;43.882;-0.310;2023-05-08T06:44:00;15.80;77.50
57566;DHT22;63999;43.882;-0.310;2023-05-08T06:46:26;15.70;77.60
57566;DHT22;63999;43.882;-0.310;2023-05-08T06:48:54;15.80;77.10
57566;DHT22;63999;43.882;-0.310;2023-05-08T06:51:20;15.80;76.90
57566;DHT22;63999;43.882;-0.310;2023-05-08T06:53:48;15.80;77.50
57566;DHT22;63999;43.882;-0.310;2023-05-08T06:56:13;15.80;77.40
57566;DHT22;63999;43.882;-0.310;2023-05-08T06:58:39;15.80;77.50
57566;DHT22;63999;43.882;-0.310;2023-05-08T07:01:05;15.80;77.70
57566;DHT22;63999;43.882;-0.310;2023-05-08T07:03:32;15.80;77.80
57566;DHT22;63999;43.882;-0.310;2023-05-08T07:05:57;15.90;78.10
57566;DHT22;63999;43.882;-0.310;2023-05-08T07:08:25;15.90;76.20
57566;DHT22;63999;43.882;-0.310;2023-05-08T07:10:50;16.00;76.90
57566;DHT22;63999;43.882;-0.310;2023-05-08T07:13:17;16.00;77.40
57566;DHT22;63999;43.882;-0.310;2023-05-08T07:15:49;16.00;77.50
57566;DHT22;63999;43.882;-0.310;2023-05-08T07:18:22;16.00;76.90
57566;DHT22;63999;43.882;-0.310;2023-05-08T07:20:48;16.00;77.20
57566;DHT22;63999;43.882;-0.310;2023-05-08T07:23:13;16.00;77.30
57566;DHT22;63999;43.882;-0.310;2023-05-08T07:25:39;16.00;77.30
57566;DHT22;63999;43.882;-0.310;2023-05-08T07:28:05;16.00;77.90
57566;DHT22;63999;43.882;-0.310;2023-05-08T07:30:32;16.10;74.80
57566;DHT22;63999;43.882;-0.310;2023-05-08T07:32:58;16.10;77.20
57566;DHT22;63999;43.882;-0.310;2023-05-08T07:35:24;16.10;74.70
57566;DHT22;63999;43.882;-0.310;2023-05-08T07:37:50;16.20;76.00
57566;DHT22;63999;43.882;-0.310;2023-05-08T07:40:16;16.20;76.40
57566;DHT22;63999;43.882;-0.310;2023-05-08T07:42:42;16.20;73.70
57566;DHT22;63999;43.882;-0.310;2023-05-08T07:45:09;16.20;75.20
57566;DHT22;63999;43.882;-0.310;2023-05-08T07:47:36;16.30;75.80
57566;DHT22;63999;43.882;-0.310;2023-05-08T07:50:03;16.40;76.80
57566;DHT22;63999;43.882;-0.310;2023-05-08T07:52:29;16.50;76.60
57566;DHT22;63999;43.882;-0.310;2023-05-08T07:54:55;16.50;77.60
57566;DHT22;63999;43.882;-0.310;2023-05-08T07:57:23;16.60;75.60
57566;DHT22;63999;43.882;-0.310;2023-05-08T07:59:49;16.60;73.80
57566;DHT22;63999;43.882;-0.310;2023-05-08T08:02:15;16.80;75.80
57566;DHT22;63999;43.882;-0.310;2023-05-08T08:04:41;16.90;74.70
57566;DHT22;63999;43.882;-0.310;2023-05-08T08:07:07;16.90;74.30
57566;DHT22;63999;43.882;-0.310;2023-05-08T08:09:32;16.90;74.40
57566;DHT22;63999;43.882;-0.310;2023-05-08T08:12:04;17.00;73.60
57566;DHT22;63999;43.882;-0.310;2023-05-08T08:14:30;17.00;74.40
57566;DHT22;63999;43.882;-0.310;2023-05-08T08:17:34;17.00;73.20
57566;DHT22;63999;43.882;-0.310;2023-05-08T08:20:06;17.00;74.70
57566;DHT22;63999;43.882;-0.310;2023-05-08T08:22:32;17.20;74.10
57566;DHT22;63999;43.882;-0.310;2023-05-08T08:24:58;17.40;74.50
57566;DHT22;63999;43.882;-0.310;2023-05-08T08:27:28;17.50;74.20
57566;DHT22;63999;43.882;-0.310;2023-05-08T08:29:54;17.50;72.90
57566;DHT22;63999;43.882;-0.310;2023-05-08T08:32:20;17.40;73.20
57566;DHT22;63999;43.882;-0.310;2023-05-08T08:34:45;17.20;73.40
57566;DHT22;63999;43.882;-0.310;2023-05-08T08:37:11;17.20;72.40
57566;DHT22;63999;43.882;-0.310;2023-05-08T08:39:37;17.20;73.80
57566;DHT22;63999;43.882;-0.310;2023-05-08T08:42:03;17.20;72.20
57566;DHT22;63999;43.882;-0.310;2023-05-08T08:44:29;17.10;73.20
57566;DHT22;63999;43.882;-0.310;2023-05-08T08:46:58;17.10;73.60
57566;DHT22;63999;43.882;-0.310;2023-05-08T08:49:34;17.20;73.80
57566;DHT22;63999;43.882;-0.310;2023-05-08T08:52:10;17.20;73.90
57566;DHT22;63999;43.882;-0.310;2023-05-08T08:54:39;17.20;72.10
57566;DHT22;63999;43.882;-0.310;2023-05-08T08:57:08;17.20;73.70
57566;DHT22;63999;43.882;-0.310;2023-05-08T08:59:37;17.30;74.10
57566;DHT22;63999;43.882;-0.310;2023-05-08T09:02:10;17.30;73.90
57566;DHT22;63999;43.882;-0.310;2023-05-08T09:04:42;17.40;73.90
57566;DHT22;63999;43.882;-0.310;2023-05-08T09:07:09;17.50;73.60
57566;DHT22;63999;43.882;-0.310;2023-05-08T09:09:38;17.50;72.70
57566;DHT22;63999;43.882;-0.310;2023-05-08T09:12:08;17.40;73.00
57566;DHT22;63999;43.882;-0.310;2023-05-08T09:14:36;17.40;73.30
57566;DHT22;63999;43.882;-0.310;2023-05-08T09:17:05;17.30;73.30
57566;DHT22;63999;43.882;-0.310;2023-05-08T09:19:32;17.30;73.70
57566;DHT22;63999;43.882;-0.310;2023-05-08T09:22:02;17.50;73.50
57566;DHT22;63999;43.882;-0.310;2023-05-08T09:25:07;17.50;72.80
57566;DHT22;63999;43.882;-0.310;2023-05-08T09:27:32;17.30;72.20
57566;DHT22;63999;43.882;-0.310;2023-05-08T09:30:07;17.30;73.50
57566;DHT22;63999;43.882;-0.310;2023-05-08T09:32:35;17.40;72.90
57566;DHT22;63999;43.882;-0.310;2023-05-08T09:35:06;17.20;73.20
57566;DHT22;63999;43.882;-0.310;2023-05-08T09:37:38;17.30;73.50
57566;DHT22;63999;43.882;-0.310;2023-05-08T09:40:20;17.30;72.80
57566;DHT22;63999;43.882;-0.310;2023-05-08T09:42:49;17.40;74.00
57566;DHT22;63999;43.882;-0.310;2023-05-08T09:45:33;17.50;73.10
57566;DHT22;63999;43.882;-0.310;2023-05-08T09:47:59;17.50;73.80
57566;DHT22;63999;43.882;-0.310;2023-05-08T09:50:25;17.50;73.20
57566;DHT22;63999;43.882;-0.310;2023-05-08T09:52:52;17.50;73.40
57566;DHT22;63999;43.882;-0.310;2023-05-08T09:55:18;17.40;73.60
57566;DHT22;63999;43.882;-0.310;2023-05-08T09:57:55;17.50;73.60
57566;DHT22;63999;43.882;-0.310;2023-05-08T10:00:22;17.50;73.60
57566;DHT22;63999;43.882;-0.310;2023-05-08T10:03:00;17.50;72.20
57566;DHT22;63999;43.882;-0.310;2023-05-08T10:05:29;17.50;72.30
57566;DHT22;63999;43.882;-0.310;2023-05-08T10:08:18;17.60;73.60
57566;DHT22;63999;43.882;-0.310;2023-05-08T10:10:46;17.90;72.90
57566;DHT22;63999;43.882;-0.310;2023-05-08T10:13:13;17.80;73.40
57566;DHT22;63999;43.882;-0.310;2023-05-08T10:15:44;17.90;72.90
57566;DHT22;63999;43.882;-0.310;2023-05-08T10:18:13;18.00;72.70
57566;DHT22;63999;43.882;-0.310;2023-05-08T10:20:42;18.00;72.30
57566;DHT22;63999;43.882;-0.310;2023-05-08T10:23:16;17.90;72.90
57566;DHT22;63999;43.882;-0.310;2023-05-08T10:25:47;18.00;73.30
57566;DHT22;63999;43.882;-0.310;2023-05-08T10:28:36;18.10;72.30
57566;DHT22;63999;43.882;-0.310;2023-05-08T10:31:11;18.00;73.10
57566;DHT22;63999;43.882;-0.310;2023-05-08T10:33:39;18.10;73.00
57566;DHT22;63999;43.882;-0.310;2023-05-08T10:36:11;18.10;72.50
57566;DHT22;63999;43.882;-0.310;2023-05-08T10:38:40;18.10;72.40
57566;DHT22;63999;43.882;-0.310;2023-05-08T10:41:10;18.00;72.70
57566;DHT22;63999;43.882;-0.310;2023-05-08T10:43:43;18.00;72.80
57566;DHT22;63999;43.882;-0.310;2023-05-08T10:54:11;18.20;71.20
57566;DHT22;63999;43.882;-0.310;2023-05-08T10:56:38;18.20;71.20
57566;DHT22;63999;43.882;-0.310;2023-05-08T10:59:05;18.20;71.80
57566;DHT22;63999;43.882;-0.310;2023-05-08T11:01:32;18.10;72.00
57566;DHT22;63999;43.882;-0.310;2023-05-08T11:03:58;18.00;72.70
57566;DHT22;63999;43.882;-0.310;2023-05-08T11:06:47;17.90;73.10
57566;DHT22;63999;43.882;-0.310;2023-05-08T11:09:27;17.90;73.40
57566;DHT22;63999;43.882;-0.310;2023-05-08T11:12:19;18.00;73.40
57566;DHT22;63999;43.882;-0.310;2023-05-08T11:15:05;18.00;72.50
57566;DHT22;63999;43.882;-0.310;2023-05-08T11:17:32;18.10;72.60
57566;DHT22;63999;43.882;-0.310;2023-05-08T11:20:00;18.20;72.50
57566;DHT22;63999;43.882;-0.310;2023-05-08T11:22:31;18.20;72.20
57566;DHT22;63999;43.882;-0.310;2023-05-08T11:25:09;18.30;72.10
57566;DHT22;63999;43.882;-0.310;2023-05-08T11:35:50;18.40;71.20
57566;DHT22;63999;43.882;-0.310;2023-05-08T11:38:33;18.40;70.10
57566;DHT22;63999;43.882;-0.310;2023-05-08T11:41:09;18.40;70.70
57566;DHT22;63999;43.882;-0.310;2023-05-08T11:46:41;18.20;72.30
57566;DHT22;63999;43.882;-0.310;2023-05-08T11:49:14;18.20;72.20
57566;DHT22;63999;43.882;-0.310;2023-05-08T11:51:49;18.10;72.80
57566;DHT22;63999;43.882;-0.310;2023-05-08T11:54:20;18.00;72.80
57566;DHT22;63999;43.882;-0.310;2023-05-08T11:56:50;18.00;72.70
57566;DHT22;63999;43.882;-0.310;2023-05-08T11:59:24;18.10;73.10
57566;DHT22;63999;43.882;-0.310;2023-05-08T12:01:52;18.00;73.40
57566;DHT22;63999;43.882;-0.310;2023-05-08T12:04:18;18.00;73.10
57566;DHT22;63999;43.882;-0.310;2023-05-08T12:06:47;18.10;73.00
57566;DHT22;63999;43.882;-0.310;2023-05-08T12:09:18;18.30;72.10
57566;DHT22;63999;43.882;-0.310;2023-05-08T12:11:45;18.20;72.40
57566;DHT22;63999;43.882;-0.310;2023-05-08T12:14:12;18.20;72.60
57566;DHT22;63999;43.882;-0.310;2023-05-08T12:16:39;18.30;72.60
57566;DHT22;63999;43.882;-0.310;2023-05-08T12:19:12;18.40;72.10
57566;DHT22;63999;43.882;-0.310;2023-05-08T12:21:38;18.40;72.20
57566;DHT22;63999;43.882;-0.310;2023-05-08T12:24:12;18.50;71.80
57566;DHT22;63999;43.882;-0.310;2023-05-08T12:26:41;18.60;71.40
57566;DHT22;63999;43.882;-0.310;2023-05-08T12:29:09;18.70;71.40
57566;DHT22;63999;43.882;-0.310;2023-05-08T12:31:36;18.70;71.10
57566;DHT22;63999;43.882;-0.310;2023-05-08T12:34:05;18.70;71.30
57566;DHT22;63999;43.882;-0.310;2023-05-08T12:36:35;18.90;70.50
57566;DHT22;63999;43.882;-0.310;2023-05-08T12:39:17;18.90;71.30
57566;DHT22;63999;43.882;-0.310;2023-05-08T12:41:50;19.00;70.60
57566;DHT22;63999;43.882;-0.310;2023-05-08T12:44:24;19.00;70.80
57566;DHT22;63999;43.882;-0.310;2023-05-08T12:46:53;18.90;70.90
57566;DHT22;63999;43.882;-0.310;2023-05-08T12:49:30;18.80;71.60
57566;DHT22;63999;43.882;-0.310;2023-05-08T12:52:01;18.90;71.20
57566;DHT22;63999;43.882;-0.310;2023-05-08T12:54:34;18.80;71.20
57566;DHT22;63999;43.882;-0.310;2023-05-08T12:57:13;18.90;71.20
57566;DHT22;63999;43.882;-0.310;2023-05-08T12:59:43;19.10;70.70
57566;DHT22;63999;43.882;-0.310;2023-05-08T13:02:17;19.10;70.70
57566;DHT22;63999;43.882;-0.310;2023-05-08T13:04:47;19.10;70.40
57566;DHT22;63999;43.882;-0.310;2023-05-08T13:07:20;19.00;71.00
57566;DHT22;63999;43.882;-0.310;2023-05-08T13:10:12;18.80;71.40
57566;DHT22;63999;43.882;-0.310;2023-05-08T13:12:38;18.90;71.50
57566;DHT22;63999;43.882;-0.310;2023-05-08T13:15:08;18.90;71.60
57566;DHT22;63999;43.882;-0.310;2023-05-08T13:17:34;19.00;71.10
57566;DHT22;63999;43.882;-0.310;2023-05-08T13:20:02;19.20;70.10
57566;DHT22;63999;43.882;-0.310;2023-05-08T13:22:29;19.40;69.70
57566;DHT22;63999;43.882;-0.310;2023-05-08T13:24:58;19.20;70.60
57566;DHT22;63999;43.882;-0.310;2023-05-08T13:27:24;19.20;70.80
57566;DHT22;63999;43.882;-0.310;2023-05-08T13:29:49;19.10;71.30
57566;DHT22;63999;43.882;-0.310;2023-05-08T13:32:15;19.20;71.00
57566;DHT22;63999;43.882;-0.310;2023-05-08T13:34:41;19.20;71.00
57566;DHT22;63999;43.882;-0.310;2023-05-08T13:37:12;19.20;70.90
57566;DHT22;63999;43.882;-0.310;2023-05-08T13:39:38;19.20;71.10
57566;DHT22;63999;43.882;-0.310;2023-05-08T13:42:04;19.20;71.00
57566;DHT22;63999;43.882;-0.310;2023-05-08T13:44:35;19.10;71.30
57566;DHT22;63999;43.882;-0.310;2023-05-08T13:47:01;19.00;71.70
57566;DHT22;63999;43.882;-0.310;2023-05-08T13:49:27;18.90;72.20
57566;DHT22;63999;43.882;-0.310;2023-05-08T13:51:53;19.30;71.10
57566;DHT22;63999;43.882;-0.310;2023-05-08T13:54:22;19.50;70.50
57566;DHT22;63999;43.882;-0.310;2023-05-08T13:56:49;19.40;71.10
57566;DHT22;63999;43.882;-0.310;2023-05-08T13:59:15;19.50;70.50
57566;DHT22;63999;43.882;-0.310;2023-05-08T14:01:41;19.50;70.70
57566;DHT22;63999;43.882;-0.310;2023-05-08T14:04:07;19.30;70.90
57566;DHT22;63999;43.882;-0.310;2023-05-08T14:06:36;19.20;71.60
57566;DHT22;63999;43.882;-0.310;2023-05-08T14:09:05;19.40;71.20
57566;DHT22;63999;43.882;-0.310;2023-05-08T14:11:31;19.20;71.40
57566;DHT22;63999;43.882;-0.310;2023-05-08T14:13:59;19.30;72.00
57566;DHT22;63999;43.882;-0.310;2023-05-08T14:16:30;19.50;70.80
57566;DHT22;63999;43.882;-0.310;2023-05-08T14:19:00;19.40;71.00
57566;DHT22;63999;43.882;-0.310;2023-05-08T14:21:27;19.30;71.40
57566;DHT22;63999;43.882;-0.310;2023-05-08T14:23:53;19.40;71.20
57566;DHT22;63999;43.882;-0.310;2023-05-08T14:26:24;19.30;71.70
57566;DHT22;63999;43.882;-0.310;2023-05-08T14:28:53;19.30;71.60
57566;DHT22;63999;43.882;-0.310;2023-05-08T14:31:19;19.20;72.20
57566;DHT22;63999;43.882;-0.310;2023-05-08T14:33:45;19.10;72.30
57566;DHT22;63999;43.882;-0.310;2023-05-08T14:36:11;19.20;72.00
57566;DHT22;63999;43.882;-0.310;2023-05-08T14:38:40;19.20;72.30
57566;DHT22;63999;43.882;-0.310;2023-05-08T14:41:07;19.30;71.70
57566;DHT22;63999;43.882;-0.310;2023-05-08T14:43:33;19.30;71.70
57566;DHT22;63999;43.882;-0.310;2023-05-08T14:45:59;19.30;71.60
57566;DHT22;63999;43.882;-0.310;2023-05-08T14:48:25;19.40;72.20
57566;DHT22;63999;43.882;-0.310;2023-05-08T14:50:53;19.70;70.70
57566;DHT22;63999;43.882;-0.310;2023-05-08T14:53:22;19.70;70.50
57566;DHT22;63999;43.882;-0.310;2023-05-08T14:55:48;19.70;70.30
57566;DHT22;63999;43.882;-0.310;2023-05-08T14:58:14;19.90;70.10
57566;DHT22;63999;43.882;-0.310;2023-05-08T15:00:41;19.80;70.20
57566;DHT22;63999;43.882;-0.310;2023-05-08T15:03:07;19.90;70.20
57566;DHT22;63999;43.882;-0.310;2023-05-08T15:05:32;19.90;70.40
57566;DHT22;63999;43.882;-0.310;2023-05-08T15:07:58;19.90;70.30
57566;DHT22;63999;43.882;-0.310;2023-05-08T15:10:26;19.70;70.90
57566;DHT22;63999;43.882;-0.310;2023-05-08T15:12:52;19.70;71.20
57566;DHT22;63999;43.882;-0.310;2023-05-08T15:15:17;19.70;70.60
57566;DHT22;63999;43.882;-0.310;2023-05-08T15:17:46;19.90;69.70
57566;DHT22;63999;43.882;-0.310;2023-05-08T15:20:12;19.90;70.40
57566;DHT22;63999;43.882;-0.310;2023-05-08T15:22:38;19.90;69.70
57566;DHT22;63999;43.882;-0.310;2023-05-08T15:25:04;19.90;70.10
57566;DHT22;63999;43.882;-0.310;2023-05-08T15:27:30;19.90;70.50
57566;DHT22;63999;43.882;-0.310;2023-05-08T15:29:57;19.90;70.30
57566;DHT22;63999;43.882;-0.310;2023-05-08T15:32:23;20.00;70.30
57566;DHT22;63999;43.882;-0.310;2023-05-08T15:34:52;19.90;70.30
57566;DHT22;63999;43.882;-0.310;2023-05-08T15:37:17;19.90;69.60
57566;DHT22;63999;43.882;-0.310;2023-05-08T15:39:43;19.90;70.20
57566;DHT22;63999;43.882;-0.310;2023-05-08T15:42:09;19.70;70.50
57566;DHT22;63999;43.882;-0.310;2023-05-08T15:44:35;19.70;70.60
57566;DHT22;63999;43.882;-0.310;2023-05-08T15:47:04;19.70;71.00
57566;DHT22;63999;43.882;-0.310;2023-05-08T15:49:30;19.70;70.60
57566;DHT22;63999;43.882;-0.310;2023-05-08T15:51:56;19.70;70.70
57566;DHT22;63999;43.882;-0.310;2023-05-08T15:54:23;19.80;71.20
57566;DHT22;63999;43.882;-0.310;2023-05-08T15:56:49;19.70;71.10
57566;DHT22;63999;43.882;-0.310;2023-05-08T15:59:15;20.00;70.10
57566;DHT22;63999;43.882;-0.310;2023-05-08T16:01:41;19.90;70.60
57566;DHT22;63999;43.882;-0.310;2023-05-08T16:04:09;19.90;71.20
57566;DHT22;63999;43.882;-0.310;2023-05-08T16:06:35;20.00;70.00
57566;DHT22;63999;43.882;-0.310;2023-05-08T16:09:03;19.90;70.40
57566;DHT22;63999;43.882;-0.310;2023-05-08T16:11:30;19.90;70.70
57566;DHT22;63999;43.882;-0.310;2023-05-08T16:13:57;19.90;70.60
57566;DHT22;63999;43.882;-0.310;2023-05-08T16:16:24;19.90;70.80
57566;DHT22;63999;43.882;-0.310;2023-05-08T16:18:50;19.90;70.70
57566;DHT22;63999;43.882;-0.310;2023-05-08T16:21:16;19.80;71.50